Time;durP1;ratioP1;P1;durP2;ratioP2;P2;SDS_P1;SDS_P2;PMS_P1;PMS_P2;Temp;Humidity;BMP_temperature;BMP_pressure;BME280_temperature;BME280_humidity;BME280_pressure;Samples;Min_cycle;Max_cycle;Signal;HPM_P1;HPM_P2
2022/06/22 00:01:21;;;;;;;8.40;6.18;;;12.60;99.90;;;;;;5044495;28;20152;-68
2022/06/22 00:03:53;;;;;;;7.38;4.72;;;12.50;99.90;;;;;;5039625;28;20039;-68
2022/06/22 00:06:43;;;;;;;3.90;3.20;;;12.50;99.90;;;;;;5041497;28;20041;-68
2022/06/22 00:09:38;;;;;;;4.82;3.58;;;12.40;99.90;;;;;;5020351;28;20452;-68
2022/06/22 00:12:05;;;;;;;9.00;5.15;;;12.40;99.90;;;;;;5036365;28;20144;-67
2022/06/22 00:14:43;;;;;;;9.50;5.35;;;12.30;99.90;;;;;;5043176;28;20046;-68
2022/06/22 00:17:20;;;;;;;7.32;5.38;;;12.30;99.90;;;;;;5036841;28;20749;-68
2022/06/22 00:19:47;;;;;;;9.50;6.55;;;12.20;99.90;;;;;;5040775;28;20044;-68
2022/06/22 00:22:27;;;;;;;11.00;7.05;;;12.20;99.90;;;;;;5037227;28;20052;-68
2022/06/22 00:25:09;;;;;;;10.27;5.82;;;12.10;99.90;;;;;;5031438;28;20492;-68
2022/06/22 00:27:36;;;;;;;7.33;4.37;;;12.10;99.90;;;;;;5036847;28;20094;-68
2022/06/22 00:30:25;;;;;;;6.03;4.43;;;12.10;99.90;;;;;;5035869;28;20304;-68
2022/06/22 00:33:12;;;;;;;7.97;5.20;;;12.10;99.90;;;;;;5039073;28;20064;-68
2022/06/22 00:35:46;;;;;;;6.88;4.47;;;12.10;99.90;;;;;;5036252;28;20596;-68
2022/06/22 00:38:18;;;;;;;7.40;4.28;;;12.00;99.90;;;;;;5032972;28;20053;-68
2022/06/22 00:40:48;;;;;;;9.00;5.40;;;12.00;99.90;;;;;;5042539;28;20467;-69
2022/06/22 00:43:16;;;;;;;11.05;5.28;;;11.90;99.90;;;;;;5037264;28;20049;-68
2022/06/22 00:45:43;;;;;;;6.50;4.53;;;11.90;99.90;;;;;;5034129;28;20108;-68
2022/06/22 00:48:22;;;;;;;8.68;5.47;;;11.90;99.90;;;;;;5037994;28;20048;-68
2022/06/22 00:50:59;;;;;;;7.47;5.03;;;11.80;99.90;;;;;;5035247;28;20048;-69
2022/06/22 00:54:09;;;;;;;8.45;5.30;;;11.80;99.90;;;;;;5036463;28;20040;-68
2022/06/22 00:56:45;;;;;;;7.93;5.32;;;11.80;99.90;;;;;;4977767;28;20049;-68
2022/06/22 00:59:23;;;;;;;7.90;4.97;;;11.70;99.90;;;;;;4978186;28;20054;-68
2022/06/22 01:02:08;;;;;;;8.73;5.70;;;11.70;99.90;;;;;;5017327;28;20044;-68
2022/06/22 01:04:45;;;;;;;6.85;4.82;;;11.60;99.90;;;;;;4982077;28;20102;-67
2022/06/22 01:07:23;;;;;;;9.65;5.95;;;11.70;99.90;;;;;;5031245;28;20120;-68
2022/06/22 01:10:05;;;;;;;8.07;6.35;;;11.70;99.90;;;;;;5030272;28;20698;-67
2022/06/22 01:12:35;;;;;;;10.87;5.57;;;11.70;99.90;;;;;;5033098;28;20057;-68
2022/06/22 01:15:25;;;;;;;12.38;6.80;;;11.70;99.90;;;;;;5033062;28;20830;-69
2022/06/22 01:17:58;;;;;;;9.25;6.47;;;11.70;99.90;;;;;;5033538;28;20041;-68
2022/06/22 01:20:53;;;;;;;10.20;6.70;;;11.70;99.90;;;;;;5026359;28;20041;-68
2022/06/22 01:23:43;;;;;;;14.10;7.82;;;11.60;99.90;;;;;;5030476;28;20041;-68
2022/06/22 01:26:31;;;;;;;13.38;8.38;;;11.60;99.90;;;;;;5030670;28;20080;-68
2022/06/22 01:29:23;;;;;;;14.93;8.57;;;11.50;99.90;;;;;;5037240;28;20064;-68
2022/06/22 01:32:02;;;;;;;13.00;8.32;;;11.50;99.90;;;;;;5035458;28;20135;-68
2022/06/22 01:34:38;;;;;;;13.35;8.43;;;11.50;99.90;;;;;;5035855;28;20104;-68
2022/06/22 01:37:06;;;;;;;9.27;5.60;;;11.50;99.90;;;;;;5041282;28;20374;-70
2022/06/22 01:39:32;;;;;;;6.65;4.43;;;11.50;99.90;;;;;;5036798;28;20045;-68
2022/06/22 01:42:07;;;;;;;6.80;4.13;;;11.50;99.90;;;;;;5029404;28;20048;-69
2022/06/22 01:44:54;;;;;;;6.32;3.70;;;11.40;99.90;;;;;;5035952;28;20091;-68
2022/06/22 01:47:29;;;;;;;3.65;2.05;;;11.40;99.90;;;;;;5032609;28;20179;-69
2022/06/22 01:50:04;;;;;;;2.47;1.70;;;11.30;99.90;;;;;;5019967;28;20033;-67
2022/06/22 01:52:55;;;;;;;2.55;1.67;;;11.30;99.90;;;;;;5033019;28;20049;-67
2022/06/22 01:55:29;;;;;;;4.28;2.75;;;11.20;99.90;;;;;;4997674;28;20158;-67
2022/06/22 01:58:18;;;;;;;6.07;2.63;;;11.10;99.90;;;;;;5032033;28;20088;-68
2022/06/22 02:00:52;;;;;;;3.40;2.70;;;11.10;99.90;;;;;;5024164;28;20072;-68
2022/06/22 02:03:37;;;;;;;5.00;3.55;;;11.00;99.90;;;;;;5034187;28;20033;-68
2022/06/22 02:09:14;;;;;;;6.70;3.58;;;11.00;99.90;;;;;;5036479;28;20049;-69
2022/06/22 02:11:47;;;;;;;8.73;4.70;;;11.00;99.90;;;;;;5036350;28;20466;-69
2022/06/22 02:14:18;;;;;;;11.90;6.10;;;11.00;99.90;;;;;;5039818;28;20509;-68
2022/06/22 02:16:54;;;;;;;15.27;8.25;;;10.90;99.90;;;;;;5040141;28;20052;-69
2022/06/22 02:19:21;;;;;;;10.02;6.97;;;10.80;99.90;;;;;;5040926;28;20048;-69
2022/06/22 02:21:49;;;;;;;13.63;10.40;;;10.80;99.90;;;;;;5038281;28;20049;-69
2022/06/22 02:24:28;;;;;;;16.25;11.48;;;10.80;99.90;;;;;;5036569;28;20105;-68
2022/06/22 02:27:08;;;;;;;13.52;10.23;;;10.90;99.90;;;;;;5038841;28;20055;-70
2022/06/22 02:29:40;;;;;;;15.85;10.40;;;10.90;99.90;;;;;;5051798;28;20045;-69
2022/06/22 02:32:10;;;;;;;18.77;11.65;;;10.90;99.90;;;;;;5032300;28;20045;-69
2022/06/22 02:34:39;;;;;;;18.23;10.65;;;11.00;99.90;;;;;;5033625;28;20320;-68
2022/06/22 02:37:08;;;;;;;16.10;10.75;;;11.00;99.90;;;;;;5032108;28;20492;-70
2022/06/22 02:39:40;;;;;;;13.98;9.07;;;11.00;99.90;;;;;;5040874;28;20565;-69
2022/06/22 02:44:51;;;;;;;13.52;8.23;;;10.90;99.90;;;;;;5034196;28;20061;-68
2022/06/22 02:47:22;;;;;;;9.60;6.78;;;10.90;99.90;;;;;;5036544;28;20784;-68
2022/06/22 02:50:26;;;;;;;8.57;5.82;;;10.90;99.90;;;;;;5032126;28;20146;-68
2022/06/22 02:53:33;;;;;;;7.28;5.57;;;10.80;99.90;;;;;;5030959;28;20159;-68
2022/06/22 02:56:04;;;;;;;8.68;6.80;;;10.80;99.90;;;;;;5024550;28;21830;-68
2022/06/22 02:58:31;;;;;;;11.90;8.10;;;10.80;99.90;;;;;;5034310;28;20045;-68
2022/06/22 03:01:06;;;;;;;10.23;7.78;;;10.80;99.90;;;;;;5035171;28;20095;-68
2022/06/22 03:03:34;;;;;;;12.68;7.20;;;10.80;99.90;;;;;;5036583;28;20045;-68
2022/06/22 03:06:01;;;;;;;11.82;7.20;;;10.80;99.90;;;;;;5036114;28;20045;-67
2022/06/22 03:08:28;;;;;;;7.93;5.88;;;10.80;99.90;;;;;;5034970;28;20049;-68
2022/06/22 03:11:08;;;;;;;8.05;3.80;;;10.80;99.90;;;;;;5034210;28;20072;-68
2022/06/22 03:13:45;;;;;;;2.70;1.90;;;10.80;99.90;;;;;;5032776;28;20041;-68
2022/06/22 03:16:25;;;;;;;3.53;1.67;;;10.70;99.90;;;;;;5035238;28;20082;-68
2022/06/22 03:18:52;;;;;;;2.08;1.25;;;10.60;99.90;;;;;;5034722;28;20049;-68
2022/06/22 03:21:18;;;;;;;2.20;1.10;;;10.50;99.90;;;;;;5032602;28;20109;-70
2022/06/22 03:24:08;;;;;;;3.38;2.30;;;10.40;99.90;;;;;;5030558;28;20733;-70
2022/06/22 03:26:39;;;;;;;2.50;1.70;;;10.30;99.90;;;;;;5034769;28;20458;-69
2022/06/22 03:29:28;;;;;;;3.40;2.10;;;10.20;99.90;;;;;;5035976;28;20506;-68
2022/06/22 03:32:00;;;;;;;4.00;3.03;;;10.10;99.90;;;;;;5041398;28;20113;-69
2022/06/22 03:34:34;;;;;;;4.65;3.33;;;10.10;99.90;;;;;;5041547;28;20098;-66
2022/06/22 03:37:25;;;;;;;3.63;2.92;;;10.10;99.90;;;;;;5044224;28;20045;-67
2022/06/22 03:40:04;;;;;;;5.03;3.38;;;10.10;99.90;;;;;;5042871;28;20060;-67
2022/06/22 03:42:46;;;;;;;5.07;3.95;;;10.10;99.90;;;;;;5040578;28;20048;-68
2022/06/22 03:45:23;;;;;;;4.75;3.65;;;10.10;99.90;;;;;;5041552;28;20048;-67
2022/06/22 03:47:55;;;;;;;5.97;4.28;;;10.20;99.90;;;;;;5041732;28;21399;-67
2022/06/22 03:50:33;;;;;;;7.80;5.43;;;10.20;99.90;;;;;;5035585;28;20063;-68
2022/06/22 03:53:12;;;;;;;9.82;6.00;;;10.30;99.90;;;;;;5035041;28;20053;-69
2022/06/22 03:55:43;;;;;;;9.20;6.35;;;10.40;99.90;;;;;;5037124;28;20083;-69
2022/06/22 03:58:11;;;;;;;7.68;6.40;;;10.60;99.90;;;;;;5038256;28;20049;-69
2022/06/22 04:00:39;;;;;;;8.95;5.20;;;10.60;99.90;;;;;;5034221;28;20357;-69
2022/06/22 04:03:06;;;;;;;8.80;5.45;;;10.70;99.90;;;;;;5046161;28;20048;-67
2022/06/22 04:05:47;;;;;;;8.57;5.78;;;10.70;99.90;;;;;;5037869;28;20044;-68
2022/06/22 04:08:23;;;;;;;7.88;6.45;;;10.70;99.90;;;;;;5034878;28;20049;-69
2022/06/22 04:11:06;;;;;;;11.32;6.78;;;10.90;99.90;;;;;;5034939;28;20041;-68
2022/06/22 04:13:49;;;;;;;11.07;6.60;;;11.00;99.90;;;;;;5038125;28;20037;-68
2022/06/22 04:16:22;;;;;;;10.40;6.78;;;11.40;99.90;;;;;;5037354;28;20052;-69
2022/06/22 04:18:58;;;;;;;9.98;6.38;;;11.90;99.90;;;;;;5035877;28;20371;-69
2022/06/22 04:21:41;;;;;;;10.85;6.57;;;12.70;99.90;;;;;;5037675;28;20053;-68
2022/06/22 04:24:35;;;;;;;11.48;7.43;;;13.50;99.90;;;;;;5036412;28;20071;-68
2022/06/22 04:27:16;;;;;;;12.75;6.90;;;14.00;99.90;;;;;;5039290;28;20076;-68
2022/06/22 04:29:53;;;;;;;13.32;7.65;;;14.70;99.90;;;;;;5039457;28;20044;-69
2022/06/22 04:32:30;;;;;;;11.90;8.25;;;15.00;99.90;;;;;;5042855;28;20094;-69
2022/06/22 04:35:33;;;;;;;14.38;9.85;;;15.10;99.90;;;;;;5036654;28;20049;-69
2022/06/22 04:38:18;;;;;;;11.88;9.48;;;15.00;99.90;;;;;;5033575;28;20041;-69
2022/06/22 04:40:54;;;;;;;15.13;9.45;;;14.70;99.90;;;;;;5034929;28;20075;-68
2022/06/22 04:43:20;;;;;;;15.27;9.00;;;14.30;99.90;;;;;;5035938;28;20036;-68
2022/06/22 04:45:48;;;;;;;14.05;9.07;;;14.00;99.90;;;;;;5032373;28;20053;-68
2022/06/22 04:48:29;;;;;;;16.50;10.02;;;13.70;99.90;;;;;;5037692;28;20609;-66
2022/06/22 04:51:00;;;;;;;14.00;10.30;;;13.50;99.90;;;;;;5033044;28;20053;-68
2022/06/22 04:53:34;;;;;;;17.25;11.70;;;13.30;99.90;;;;;;5042051;28;20053;-69
2022/06/22 04:56:06;;;;;;;21.52;14.27;;;13.30;99.90;;;;;;5034103;28;20056;-68
2022/06/22 04:58:38;;;;;;;21.38;14.38;;;13.30;99.90;;;;;;5034506;28;20444;-68
2022/06/22 05:01:05;;;;;;;17.65;13.95;;;13.40;99.90;;;;;;5036118;28;20041;-68
2022/06/22 05:03:32;;;;;;;28.40;15.68;;;13.50;99.90;;;;;;5041702;28;20072;-68
2022/06/22 05:06:02;;;;;;;25.42;15.82;;;13.60;99.90;;;;;;5040656;28;20037;-68
2022/06/22 05:08:36;;;;;;;24.08;16.10;;;13.70;99.90;;;;;;5034912;28;20048;-69
2022/06/22 05:11:17;;;;;;;23.85;16.00;;;13.80;99.90;;;;;;5029051;28;20119;-68
2022/06/22 05:13:47;;;;;;;24.25;16.67;;;13.90;99.90;;;;;;5037040;28;20055;-67
2022/06/22 05:16:24;;;;;;;24.23;15.82;;;14.10;99.90;;;;;;5034377;28;20041;-68
2022/06/22 05:18:50;;;;;;;19.67;15.38;;;14.20;99.90;;;;;;5040895;28;20041;-67
2022/06/22 05:21:18;;;;;;;20.77;15.98;;;14.30;99.90;;;;;;5039896;28;20051;-69
2022/06/22 05:23:53;;;;;;;21.50;15.55;;;14.50;99.90;;;;;;5042179;28;21877;-69
2022/06/22 05:26:21;;;;;;;18.95;13.77;;;14.60;99.90;;;;;;5039653;28;20037;-68
2022/06/22 05:28:55;;;;;;;25.42;16.98;;;14.80;99.90;;;;;;5040842;28;20053;-66
2022/06/22 05:31:29;;;;;;;19.15;14.25;;;14.90;99.90;;;;;;5043971;28;20085;-67
2022/06/22 05:33:59;;;;;;;20.60;14.32;;;15.20;99.90;;;;;;5042172;28;20083;-65
2022/06/22 05:36:29;;;;;;;21.65;13.48;;;15.30;99.90;;;;;;5036551;28;20033;-66
2022/06/22 05:38:58;;;;;;;21.92;13.68;;;15.50;99.90;;;;;;5042094;28;20045;-66
2022/06/22 05:41:30;;;;;;;20.98;14.15;;;15.70;99.90;;;;;;5041181;28;20484;-67
2022/06/22 05:44:04;;;;;;;20.10;12.15;;;15.80;99.90;;;;;;5036824;28;20036;-71
2022/06/22 05:46:31;;;;;;;18.88;12.07;;;16.00;99.90;;;;;;5029268;28;20056;-67
2022/06/22 05:48:57;;;;;;;17.15;11.63;;;16.00;99.90;;;;;;5033662;28;20397;-68
2022/06/22 05:51:38;;;;;;;15.50;11.43;;;16.20;99.90;;;;;;5036040;28;20611;-68
2022/06/22 05:54:21;;;;;;;14.90;10.23;;;16.30;99.90;;;;;;5036297;28;20060;-69
2022/06/22 05:57:08;;;;;;;15.75;10.10;;;16.40;99.90;;;;;;5041430;28;20112;-68
2022/06/22 05:59:48;;;;;;;13.68;8.20;;;16.60;99.90;;;;;;5044449;28;20041;-67
2022/06/22 06:02:19;;;;;;;14.27;8.48;;;16.70;99.90;;;;;;5039056;28;20045;-67
2022/06/22 06:04:54;;;;;;;12.55;8.20;;;16.80;99.90;;;;;;5044433;28;20445;-68
2022/06/22 06:07:33;;;;;;;14.65;7.70;;;16.90;99.90;;;;;;5041182;28;20503;-68
2022/06/22 06:10:01;;;;;;;14.43;7.03;;;17.10;99.90;;;;;;5033708;28;20048;-68
2022/06/22 06:12:33;;;;;;;12.18;5.70;;;17.20;99.90;;;;;;5033387;28;20120;-68
2022/06/22 06:15:02;;;;;;;9.88;4.50;;;17.40;99.90;;;;;;5031428;28;20083;-69
2022/06/22 06:17:33;;;;;;;10.25;4.57;;;17.50;99.90;;;;;;5022285;28;20133;-69
2022/06/22 06:20:00;;;;;;;9.80;4.43;;;17.60;99.90;;;;;;5030537;28;20048;-70
2022/06/22 06:22:36;;;;;;;14.02;5.65;;;17.70;99.90;;;;;;5033283;28;20055;-69
2022/06/22 06:28:02;;;;;;;10.65;4.40;;;17.80;99.90;;;;;;5029031;28;20053;-69
2022/06/22 06:30:34;;;;;;;8.20;4.47;;;18.00;99.90;;;;;;5037653;28;20172;-69
2022/06/22 06:33:18;;;;;;;12.45;4.68;;;18.10;99.90;;;;;;5029113;28;20185;-69
2022/06/22 06:36:04;;;;;;;7.03;4.38;;;18.20;99.90;;;;;;5028786;28;20037;-70
2022/06/22 06:38:33;;;;;;;7.43;4.38;;;18.40;99.90;;;;;;5029561;28;20166;-69
2022/06/22 06:41:04;;;;;;;15.10;5.15;;;18.60;99.90;;;;;;5034292;28;20493;-69
2022/06/22 06:43:59;;;;;;;10.60;4.03;;;18.60;99.90;;;;;;5031789;28;20041;-68
2022/06/22 06:46:33;;;;;;;9.50;4.63;;;18.60;99.90;;;;;;5008797;28;20544;-68
2022/06/22 06:49:19;;;;;;;9.48;4.60;;;18.60;99.90;;;;;;5030324;28;20116;-68
2022/06/22 06:51:55;;;;;;;7.50;3.85;;;18.80;99.90;;;;;;5032376;28;20167;-68
2022/06/22 06:54:26;;;;;;;8.07;4.00;;;18.90;99.90;;;;;;5026440;28;20068;-69
2022/06/22 06:56:57;;;;;;;9.13;4.53;;;18.90;99.90;;;;;;5029852;28;20052;-69
2022/06/22 06:59:27;;;;;;;7.97;4.15;;;19.00;99.90;;;;;;5035606;28;20404;-69
2022/06/22 07:01:53;;;;;;;12.30;6.00;;;19.20;99.90;;;;;;5034968;28;20061;-69
2022/06/22 07:04:24;;;;;;;12.60;5.57;;;19.30;99.90;;;;;;5034176;28;20044;-69
2022/06/22 07:06:54;;;;;;;9.32;4.57;;;19.30;99.90;;;;;;5038395;28;20041;-69
2022/06/22 07:09:33;;;;;;;9.73;5.65;;;19.40;99.90;;;;;;5034096;28;20098;-70
2022/06/22 07:12:07;;;;;;;15.52;5.50;;;19.40;99.90;;;;;;5038269;28;20071;-71
2022/06/22 07:14:40;;;;;;;12.85;5.80;;;19.50;99.90;;;;;;5035529;28;20140;-69
2022/06/22 07:17:11;;;;;;;8.77;4.07;;;19.60;99.90;;;;;;5033273;28;20037;-69
2022/06/22 07:19:52;;;;;;;9.20;5.43;;;19.70;99.90;;;;;;5037182;28;20048;-65
2022/06/22 07:22:28;;;;;;;14.38;6.38;;;19.70;99.90;;;;;;5036751;28;20048;-67
2022/06/22 07:25:03;;;;;;;10.20;5.55;;;19.70;99.90;;;;;;5033873;28;20143;-68
2022/06/22 07:27:35;;;;;;;8.50;4.32;;;19.70;99.90;;;;;;5034107;28;21891;-67
2022/06/22 07:30:03;;;;;;;11.15;5.95;;;20.00;99.90;;;;;;5042276;28;20481;-68
2022/06/22 07:32:43;;;;;;;7.80;4.07;;;20.20;99.90;;;;;;5040673;28;20118;-67
2022/06/22 07:35:56;;;;;;;10.30;4.15;;;20.30;99.90;;;;;;5036283;28;20045;-68
2022/06/22 07:38:41;;;;;;;8.57;4.53;;;20.30;99.90;;;;;;5043069;28;20044;-68
2022/06/22 07:41:19;;;;;;;7.65;4.05;;;20.40;99.90;;;;;;5042115;28;20576;-68
2022/06/22 07:44:00;;;;;;;8.35;4.68;;;20.60;99.90;;;;;;5039559;28;20047;-67
2022/06/22 07:46:35;;;;;;;8.38;3.88;;;20.80;99.90;;;;;;5034533;28;20164;-68
2022/06/22 07:49:16;;;;;;;10.05;4.45;;;20.90;99.90;;;;;;5032859;28;20048;-68
2022/06/22 07:51:54;;;;;;;9.45;4.57;;;20.90;99.90;;;;;;5035698;28;20032;-68
2022/06/22 07:54:23;;;;;;;9.07;3.83;;;20.90;99.90;;;;;;5035030;28;20295;-68
2022/06/22 07:57:13;;;;;;;10.57;4.22;;;21.00;99.90;;;;;;5033850;28;20056;-68
2022/06/22 07:59:48;;;;;;;9.88;5.88;;;21.30;99.90;;;;;;5034786;28;20102;-68
2022/06/22 08:02:19;;;;;;;9.73;4.38;;;21.30;99.90;;;;;;5040736;28;20525;-67
2022/06/22 08:05:05;;;;;;;11.00;4.55;;;21.40;99.90;;;;;;5034264;28;20045;-67
2022/06/22 08:08:00;;;;;;;10.82;3.45;;;21.30;99.90;;;;;;5036083;28;20451;-68
2022/06/22 08:10:33;;;;;;;7.75;2.92;;;21.40;99.90;;;;;;5027274;28;20115;-68
2022/06/22 08:13:04;;;;;;;;;;;21.50;99.90;;;;;;5037640;28;20053;-68
2022/06/22 08:15:36;;;;;;;7.05;2.65;;;21.60;99.90;;;;;;5040207;28;19935;-67
2022/06/22 08:18:02;;;;;;;7.25;3.10;;;21.80;99.90;;;;;;5033417;28;20045;-66
2022/06/22 08:20:32;;;;;;;8.60;3.35;;;22.00;99.90;;;;;;5040605;28;20445;-69
2022/06/22 08:22:59;;;;;;;7.03;2.80;;;22.20;99.90;;;;;;5036956;28;20507;-69
2022/06/22 08:25:25;;;;;;;9.82;4.00;;;22.30;99.90;;;;;;5032461;28;20048;-68
2022/06/22 08:27:52;;;;;;;7.85;3.60;;;22.40;99.90;;;;;;5037858;28;20072;-69
2022/06/22 08:30:19;;;;;;;7.43;3.70;;;22.50;99.90;;;;;;5038106;28;20041;-68
2022/06/22 08:33:03;;;;;;;6.10;3.30;;;22.60;99.90;;;;;;5039526;28;20037;-69
2022/06/22 08:35:47;;;;;;;8.15;3.50;;;22.70;99.90;;;;;;5040256;28;20131;-69
2022/06/22 08:38:29;;;;;;;5.82;2.95;;;22.50;99.90;;;;;;5042059;28;20072;-68
2022/06/22 08:41:26;;;;;;;6.73;3.90;;;22.50;99.90;;;;;;5041141;28;20642;-68
2022/06/22 08:44:07;;;;;;;8.15;3.33;;;22.40;99.90;;;;;;5034693;28;20060;-68
2022/06/22 08:46:57;;;;;;;7.70;3.35;;;22.50;99.90;;;;;;5037610;28;20041;-68
2022/06/22 08:49:28;;;;;;;8.52;3.05;;;22.50;99.90;;;;;;5037529;28;20131;-68
2022/06/22 08:52:18;;;;;;;9.23;3.20;;;22.80;99.90;;;;;;5032899;28;20088;-68
2022/06/22 08:55:03;;;;;;;8.70;3.95;;;22.80;99.90;;;;;;5038537;28;20053;-68
2022/06/22 08:58:22;;;;;;;7.88;2.92;;;22.90;99.90;;;;;;5039828;28;20075;-67
2022/06/22 09:01:10;;;;;;;12.23;3.83;;;23.10;99.90;;;;;;5024978;28;20056;-67
2022/06/22 09:04:00;;;;;;;7.63;3.03;;;23.10;99.90;;;;;;5029964;28;20095;-68
2022/06/22 09:06:54;;;;;;;10.45;4.07;;;23.10;99.90;;;;;;5035083;28;20370;-67
2022/06/22 09:09:39;;;;;;;7.70;3.25;;;22.90;99.90;;;;;;5035042;28;20576;-68
2022/06/22 09:12:26;;;;;;;6.45;3.13;;;23.10;99.90;;;;;;5037433;28;20042;-68
2022/06/22 09:15:01;;;;;;;10.45;3.88;;;23.20;99.90;;;;;;5039769;28;20070;-68
2022/06/22 09:17:54;;;;;;;9.18;4.35;;;23.30;99.90;;;;;;5034031;28;20048;-68
2022/06/22 09:20:26;;;;;;;10.93;5.03;;;23.50;99.90;;;;;;5040220;28;20049;-69
2022/06/22 09:22:57;;;;;;;8.98;4.15;;;23.50;99.90;;;;;;5039530;28;20060;-67
2022/06/22 09:25:39;;;;;;;8.65;5.13;;;23.70;99.90;;;;;;5038786;28;20492;-67
2022/06/22 09:28:11;;;;;;;9.73;5.03;;;23.80;99.90;;;;;;5039931;28;20436;-67
2022/06/22 09:30:39;;;;;;;10.32;5.13;;;23.70;99.90;;;;;;5046398;28;20052;-68
2022/06/22 09:33:32;;;;;;;12.25;5.82;;;23.70;99.90;;;;;;5044432;28;20053;-67
2022/06/22 09:36:23;;;;;;;;;;;23.80;99.90;;;;;;5034310;28;20091;-68
2022/06/22 09:39:01;;;;;;;8.80;5.28;;;23.90;99.90;;;;;;5037080;28;19971;-68
2022/06/22 09:42:08;;;;;;;15.10;5.30;;;24.00;99.90;;;;;;5033625;28;20107;-67
2022/06/22 09:44:40;;;;;;;9.70;4.63;;;24.10;99.90;;;;;;5036778;28;20053;-67
2022/06/22 09:47:30;;;;;;;11.82;4.85;;;24.00;99.90;;;;;;5032574;28;20072;-67
2022/06/22 09:50:13;;;;;;;12.50;5.93;;;24.00;99.90;;;;;;5032530;28;20049;-68
2022/06/22 09:52:54;;;;;;;7.80;5.03;;;24.00;99.90;;;;;;5038427;28;20520;-68
2022/06/22 09:58:58;;;;;;;8.98;4.82;;;24.10;99.90;;;;;;5025420;28;20163;-67
2022/06/22 10:01:32;;;;;;;10.68;4.60;;;24.00;99.90;;;;;;5033827;28;20121;-67
2022/06/22 10:04:27;;;;;;;9.27;3.97;;;24.10;99.90;;;;;;5035505;28;20045;-67
2022/06/22 10:07:15;;;;;;;8.93;4.18;;;24.20;99.90;;;;;;5041162;28;20041;-67
2022/06/22 10:10:01;;;;;;;10.15;4.45;;;24.30;99.90;;;;;;5036122;28;20029;-67
2022/06/22 10:12:43;;;;;;;8.68;4.07;;;24.10;99.90;;;;;;5035876;28;20052;-68
2022/06/22 10:15:24;;;;;;;10.05;4.18;;;24.00;99.90;;;;;;5041579;28;20412;-68
2022/06/22 10:18:21;;;;;;;10.43;4.07;;;23.90;99.90;;;;;;5030802;28;20057;-68
2022/06/22 10:21:20;;;;;;;10.23;5.07;;;23.90;99.50;;;;;;5034887;28;20049;-68
2022/06/22 10:24:08;;;;;;;14.77;5.30;;;23.80;99.70;;;;;;5032420;28;20075;-68
2022/06/22 10:26:52;;;;;;;11.48;4.45;;;23.80;99.60;;;;;;5029337;28;20045;-68
2022/06/22 10:29:35;;;;;;;11.90;5.13;;;24.00;99.90;;;;;;5039740;28;20048;-67
2022/06/22 10:32:00;;;;;;;;;;;24.30;99.90;;;;;;5045405;28;20053;-67
2022/06/22 10:34:47;;;;;;;10.00;4.15;;;24.50;99.90;;;;;;5041526;28;19927;-67
2022/06/22 10:37:34;;;;;;;7.90;4.82;;;24.70;99.90;;;;;;5035185;28;20558;-67
2022/06/22 10:46:41;;;;;;;9.70;5.22;;;24.10;98.70;;;;;;5039137;28;20081;-67
2022/06/22 10:49:26;;;;;;;10.80;4.82;;;23.90;98.70;;;;;;5029153;28;20052;-68
2022/06/22 10:52:05;;;;;;;9.05;4.35;;;23.90;98.90;;;;;;5033947;28;20209;-67
2022/06/22 10:54:49;;;;;;;9.15;4.55;;;24.00;99.90;;;;;;5032152;28;20052;-67
2022/06/22 10:57:52;;;;;;;12.43;4.50;;;24.10;99.00;;;;;;5033451;28;20140;-67
2022/06/22 11:00:38;;;;;;;13.32;5.10;;;24.10;99.50;;;;;;5033793;28;20049;-67
2022/06/22 11:03:22;;;;;;;10.10;4.53;;;24.10;99.10;;;;;;5041906;28;20503;-67
2022/06/22 11:06:22;;;;;;;9.30;4.68;;;24.20;98.80;;;;;;5047308;28;20077;-66
2022/06/22 11:08:51;;;;;;;11.68;4.90;;;24.30;98.20;;;;;;5038577;28;20037;-67
2022/06/22 11:11:35;;;;;;;8.35;3.85;;;24.30;99.10;;;;;;5035734;28;20523;-66
2022/06/22 11:14:03;;;;;;;11.75;4.85;;;24.40;99.00;;;;;;5035984;28;20532;-67
2022/06/22 11:16:58;;;;;;;8.15;4.85;;;24.50;99.10;;;;;;5035862;28;21235;-66
2022/06/22 11:19:32;;;;;;;10.75;4.57;;;24.70;99.80;;;;;;5003091;28;20084;-69
2022/06/22 11:22:13;;;;;;;10.15;4.55;;;24.80;98.70;;;;;;5038073;28;20112;-67
2022/06/22 11:25:09;;;;;;;10.85;4.88;;;24.80;98.30;;;;;;5039514;28;20029;-67
2022/06/22 11:30:53;;;;;;;7.57;4.25;;;24.70;98.30;;;;;;5043562;28;20038;-67
2022/06/22 11:33:44;;;;;;;10.48;5.00;;;24.70;98.30;;;;;;5045749;28;20052;-67
2022/06/22 11:36:28;;;;;;;8.85;4.72;;;24.80;98.50;;;;;;5042296;28;20044;-68
2022/06/22 11:39:07;;;;;;;8.90;4.50;;;24.70;98.00;;;;;;5044993;28;20049;-68
2022/06/22 11:41:39;;;;;;;9.88;3.65;;;24.90;98.40;;;;;;5039975;28;20048;-68
2022/06/22 11:45:49;;;;;;;9.43;4.37;;;25.00;99.00;;;;;;5038491;28;20053;-67
2022/06/22 11:48:05;;;;;;;11.00;4.90;;;25.10;97.60;;;;;;5028639;28;20870;-67
2022/06/22 11:50:50;;;;;;;9.73;4.43;;;25.20;98.50;;;;;;4997995;28;20045;-66
2022/06/22 11:53:27;;;;;;;10.23;4.38;;;25.20;98.90;;;;;;5029688;28;20048;-67
2022/06/22 11:56:01;;;;;;;10.15;4.57;;;25.20;99.10;;;;;;5037804;28;20134;-67
2022/06/22 11:59:02;;;;;;;8.98;4.22;;;25.30;98.90;;;;;;5040194;28;20045;-67
2022/06/22 12:02:13;;;;;;;8.30;4.10;;;25.30;98.90;;;;;;5041800;28;20041;-68
2022/06/22 12:04:56;;;;;;;7.75;4.47;;;25.40;98.50;;;;;;5036673;28;20144;-70
2022/06/22 12:07:52;;;;;;;8.27;3.95;;;25.40;98.80;;;;;;5041541;28;20044;-68
2022/06/22 12:10:20;;;;;;;10.38;4.68;;;25.50;99.60;;;;;;5037005;28;20144;-67
2022/06/22 12:13:06;;;;;;;8.80;4.38;;;25.40;99.40;;;;;;5040325;28;20044;-67
2022/06/22 12:16:09;;;;;;;10.10;4.07;;;25.20;98.00;;;;;;5037357;28;20135;-68
2022/06/22 12:18:50;;;;;;;;;;;25.10;97.90;;;;;;5038698;28;20128;-67
2022/06/22 12:21:41;;;;;;;12.20;4.47;;;25.10;98.30;;;;;;5038358;28;19986;-66
2022/06/22 12:24:56;;;;;;;11.30;4.15;;;25.20;98.50;;;;;;5034617;28;20045;-67
2022/06/22 12:27:43;;;;;;;7.35;4.53;;;25.20;98.50;;;;;;5019268;28;20057;-67
2022/06/22 12:30:16;;;;;;;9.55;4.68;;;25.20;98.30;;;;;;5036455;28;20052;-67
2022/06/22 12:32:55;;;;;;;10.32;4.82;;;25.00;97.60;;;;;;5038095;28;20036;-67
2022/06/22 12:35:39;;;;;;;6.80;3.92;;;25.00;97.60;;;;;;5026503;28;20160;-66
2022/06/22 12:38:24;;;;;;;9.00;5.00;;;24.90;98.00;;;;;;5039942;28;20044;-69
2022/06/22 12:40:58;;;;;;;8.88;4.35;;;24.90;98.00;;;;;;5038392;28;20562;-66
2022/06/22 12:43:43;;;;;;;11.25;5.65;;;25.00;98.60;;;;;;5039671;28;20192;-67
2022/06/22 12:46:45;;;;;;;8.10;5.10;;;25.10;98.30;;;;;;5038472;28;20049;-66
2022/06/22 12:49:32;;;;;;;9.15;4.63;;;25.10;98.00;;;;;;5036005;28;20159;-67
2022/06/22 12:52:07;;;;;;;9.35;4.63;;;25.20;98.00;;;;;;5037268;28;20095;-66
2022/06/22 12:54:48;;;;;;;9.52;4.35;;;25.10;97.30;;;;;;5041857;28;20041;-67
2022/06/22 12:57:35;;;;;;;9.60;4.28;;;25.00;97.70;;;;;;5036186;28;20439;-66
2022/06/22 13:00:11;;;;;;;9.20;4.32;;;25.10;98.30;;;;;;5036312;28;20048;-67
2022/06/22 13:02:40;;;;;;;9.40;4.63;;;25.10;97.90;;;;;;5031799;28;20172;-66
2022/06/22 13:05:14;;;;;;;7.38;4.15;;;24.90;97.70;;;;;;5041815;28;20511;-65
2022/06/22 13:07:44;;;;;;;9.48;4.47;;;25.00;97.80;;;;;;5041135;28;20091;-65
2022/06/22 13:10:19;;;;;;;10.98;4.88;;;25.00;97.00;;;;;;5031524;28;20041;-66
2022/06/22 13:13:23;;;;;;;10.52;4.30;;;25.10;97.80;;;;;;5035731;28;20049;-66
2022/06/22 13:16:01;;;;;;;13.15;6.95;;;25.20;98.60;;;;;;5036094;28;20044;-66
2022/06/22 13:18:42;;;;;;;13.65;6.93;;;25.20;99.90;;;;;;5034689;28;20566;-66
2022/06/22 13:21:54;;;;;;;14.10;7.43;;;24.90;99.90;;;;;;5036398;28;20523;-66
2022/06/22 13:24:33;;;;;;;14.02;7.82;;;24.70;99.90;;;;;;5009922;28;20136;-66
2022/06/22 13:27:36;;;;;;;17.27;7.80;;;24.70;99.90;;;;;;5041245;28;20523;-66
2022/06/22 13:30:48;;;;;;;10.90;7.18;;;24.70;99.90;;;;;;5042426;28;20044;-67
2022/06/22 13:33:44;;;;;;;16.30;8.50;;;24.70;99.90;;;;;;5024047;28;20316;-68
2022/06/22 13:36:24;;;;;;;14.15;8.23;;;24.70;99.90;;;;;;5005889;28;20053;-68
2022/06/22 13:39:13;;;;;;;17.23;7.95;;;24.70;99.90;;;;;;5034148;28;20512;-70
2022/06/22 13:41:50;;;;;;;13.27;7.57;;;24.60;99.90;;;;;;5038852;28;20045;-70
2022/06/22 13:44:35;;;;;;;14.23;7.57;;;24.50;99.90;;;;;;5036165;28;20064;-70
2022/06/22 13:47:29;;;;;;;14.05;8.20;;;24.50;99.90;;;;;;5042479;28;20053;-70
2022/06/22 13:50:31;;;;;;;13.73;7.45;;;24.30;99.90;;;;;;5042420;28;20045;-70
2022/06/22 13:53:05;;;;;;;15.98;8.30;;;24.20;99.90;;;;;;5040448;28;20063;-70
2022/06/22 13:56:02;;;;;;;19.38;8.25;;;24.10;99.90;;;;;;5031571;28;20369;-70
2022/06/22 13:58:38;;;;;;;17.05;9.10;;;24.00;99.90;;;;;;4986302;28;20052;-72
2022/06/22 14:01:21;;;;;;;12.52;8.00;;;24.00;99.90;;;;;;5044927;28;20048;-70
2022/06/22 14:03:57;;;;;;;12.70;7.63;;;24.00;99.90;;;;;;5044409;28;20045;-70
2022/06/22 14:06:35;;;;;;;14.05;7.65;;;24.00;99.90;;;;;;5043819;28;20373;-70
2022/06/22 14:09:26;;;;;;;13.40;7.70;;;23.90;99.90;;;;;;5044986;28;20048;-72